Latest Weather Observations for Wulungurru (Kintore)

IDD60801

Issued at 8:01 pm CST Sunday 24 July 2016 (issued every 30 minutes, with the page automatically refreshed every 10 minutes)

About weather observations | Map of weather stations | Latest weather observations for NT | Other Formats
Station Details ID: 015664 Name: WALUNGURRU AIRPORT Lat: -23.27 Lon: 129.38 Height: 454.3 m
Data from the previous 72 hours. | See also: Recent months at Wulungurru (Kintore)
Date/Time
CST
Temp
°C
App
Temp
°C
Dew
Point
°C
Rel
Hum
%
Delta-T
°C
Wind Press
QNH
hPa
Press
MSL
hPa
Rain since
9am
mm
Dir  Spd
km/h
Gust
km/h
Spd
kts
Gust
kts
24/08:00pm 16.1 11.0 1.0 36 6.7 SE 17 20 9 11 1020.8 - 0.0
24/07:30pm 16.2 12.4 1.9 38 6.5 SE 11 15 6 8 1020.5 - 0.0
24/07:00pm 16.6 13.2 1.9 37 6.7 SE 9 13 5 7 1020.1 - 0.0
24/06:30pm 17.8 12.9 1.7 34 7.4 SSE 17 24 9 13 1019.6 - 0.0
24/06:00pm 18.9 13.1 2.3 33 7.8 SE 22 28 12 15 1019.4 1019.2 0.0
24/05:30pm 19.6 14.5 2.9 33 8.0 SSE 19 24 10 13 1019.1 - 0.0
24/05:00pm 19.9 14.7 2.7 32 8.2 SSE 19 28 10 15 1019.0 - 0.0
24/04:30pm 20.0 14.9 3.3 33 8.1 SSE 19 24 10 13 1019.1 - 0.0
24/04:00pm 20.0 14.9 2.8 32 8.2 SE 19 24 10 13 1019.0 - 0.0
24/03:30pm 19.7 15.0 3.0 33 8.0 ESE 17 24 9 13 1018.8 - 0.0
24/03:00pm 20.1 14.8 2.9 32 8.2 SSE 20 26 11 14 1019.6 1019.4 0.0
24/02:30pm 20.0 14.8 2.4 31 8.4 SSE 19 28 10 15 1020.0 - 0.0
24/02:00pm 19.9 14.5 2.3 31 8.3 SSE 20 26 11 14 1020.1 - 0.0
24/01:30pm 19.6 13.8 2.5 32 8.1 SE 22 30 12 16 1020.3 - 0.0
24/01:00pm 19.7 14.4 3.0 33 8.0 SSE 20 26 11 14 1020.8 - 0.0
24/12:30pm 19.1 13.5 3.3 35 7.6 SE 22 30 12 16 1021.3 - 0.0
24/12:00pm 18.7 12.7 3.3 36 7.3 SSE 24 32 13 17 1021.4 1021.2 0.0
24/11:30am 18.2 11.7 2.9 36 7.2 SSE 26 35 14 19 1021.6 - 0.0
24/11:00am 18.2 11.4 2.9 36 7.2 SE 28 35 15 19 1021.5 - 0.0
24/10:30am 17.7 10.0 2.5 36 7.1 SSE 32 41 17 22 1021.3 - 0.0
24/10:00am 17.5 10.3 3.0 38 6.8 SSE 30 39 16 21 1020.7 - 0.0
24/09:30am 16.9 9.1 2.9 39 6.6 SSE 33 43 18 23 1020.4 - 0.0
24/09:00am 16.3 10.0 3.7 43 6.0 SSE 26 33 14 18 1020.3 1020.1 0.0
24/08:30am 15.7 10.5 3.8 45 5.6 SSE 20 28 11 15 1020.1 - 0.0
24/08:00am 15.9 10.7 3.4 43 5.9 SSE 20 28 11 15 1019.6 - 0.0
24/07:30am 15.4 9.8 3.5 45 5.6 SSE 22 30 12 16 1019.2 - 0.0
24/07:00am 15.1 9.5 3.6 46 5.4 S 22 28 12 15 1019.2 - 0.0
24/06:30am 15.1 10.5 3.6 46 5.4 S 17 22 9 12 1018.9 - 0.0
24/06:00am 15.8 10.2 3.6 44 5.7 SSE 22 30 12 16 1018.3 1018.1 0.0
24/05:30am 15.4 10.3 3.9 46 5.4 SSE 20 28 11 15 1018.3 - 0.0
24/05:00am 15.4 10.5 4.2 47 5.3 SSE 19 24 10 13 1018.1 - 0.0
24/04:30am 15.8 10.3 3.9 45 5.6 SSE 22 30 12 16 1018.0 - 0.0
24/04:00am 15.9 11.7 4.0 45 5.7 S 15 28 8 15 1017.7 - 0.0
24/03:30am 16.9 12.6 3.2 40 6.5 S 15 20 8 11 1018.0 - 0.0
24/03:00am 16.9 13.9 3.9 42 6.2 SSW 9 11 5 6 1017.8 1017.6 0.0
24/02:30am 16.9 14.1 3.2 40 6.5 SSE 7 13 4 7 1017.9 - 0.0
24/02:00am 17.9 15.1 3.4 38 6.9 S 7 11 4 6 1018.2 - 0.0
24/01:30am 17.8 14.0 3.7 39 6.8 SSE 13 17 7 9 1018.3 - 0.0
24/01:00am 17.8 13.9 3.3 38 6.9 S 13 20 7 11 1018.3 - 0.0
24/12:30am 17.9 12.9 3.4 38 6.9 S 19 24 10 13 1018.5 - 0.0
24/12:00am 17.2 13.0 3.8 41 6.4 SSE 15 19 8 10 1018.4 1018.2 0.0
 
Date/Time
CST
Temp
°C
App
Temp
°C
Dew
Point
°C
Rel
Hum
%
Delta-T
°C
Wind Press
QNH
hPa
Press
MSL
hPa
Rain since
9am
mm
Dir  Spd
km/h
Gust
km/h
Spd
kts
Gust
kts
23/11:30pm 18.2 13.5 3.3 37 7.1 SSE 17 24 9 13 1018.3 - 0.0
23/11:00pm 18.3 13.6 3.4 37 7.1 S 17 20 9 11 1018.6 - 0.0
23/10:30pm 17.5 13.7 4.1 41 6.5 SSE 13 17 7 9 1018.1 - 0.0
23/10:00pm 18.2 14.0 4.0 39 6.9 S 15 19 8 10 1018.2 - 0.0
23/09:30pm 18.5 14.3 3.9 38 7.1 SSE 15 20 8 11 1017.9 - 0.0
23/09:00pm 18.5 15.1 3.9 38 7.0 SSE 11 17 6 9 1018.0 1017.8 0.0
23/08:30pm 18.8 15.4 3.8 37 7.3 S 11 13 6 7 1017.8 - 0.0
23/08:00pm 19.0 15.9 3.6 36 7.4 SSE 9 9 5 5 1017.4 - 0.0
23/07:30pm 20.3 17.4 4.4 35 7.9 S 9 15 5 8 1017.3 - 0.0
23/07:00pm 21.6 18.7 4.7 33 8.5 SW 9 11 5 6 1017.1 - 0.0
23/06:30pm 22.9 20.3 4.4 30 9.3 WSW 7 11 4 6 1016.7 - 0.0
23/06:00pm 24.0 21.1 4.4 28 9.9 SSW 9 11 5 6 1016.6 1016.3 0.0
23/05:30pm 25.1 22.5 4.3 26 10.6 SW 7 11 4 6 1016.3 - 0.0
23/05:00pm 25.7 23.1 4.2 25 11.0 SW 7 11 4 6 1016.2 - 0.0
23/04:30pm 25.4 22.8 4.0 25 10.9 SE 7 13 4 7 1016.1 - 0.0
23/04:00pm 25.0 21.8 3.0 24 10.9 S 9 15 5 8 1016.2 - 0.0
23/03:30pm 25.7 22.6 3.6 24 11.2 S 9 13 5 7 1016.7 - 0.0
23/03:00pm 25.0 21.4 3.0 24 10.9 S 11 17 6 9 1017.0 1016.8 0.0
23/02:30pm 24.8 21.6 2.9 24 10.9 S 9 13 5 7 1017.3 - 0.0
23/02:00pm 24.3 21.4 2.5 24 10.7 S 7 15 4 8 1017.6 - 0.0
23/01:30pm 24.3 21.1 3.0 25 10.5 SE 9 15 5 8 1017.9 - 0.0
23/01:00pm 24.0 20.8 3.3 26 10.3 SE 9 15 5 8 1018.3 - 0.0
23/12:30pm 23.2 18.8 2.7 26 10.0 SE 15 22 8 12 1018.9 - 0.0
23/12:00pm 22.7 18.0 3.3 28 9.5 SE 17 22 9 12 1019.4 1019.2 0.0
23/11:30am 21.8 16.6 3.5 30 9.0 SE 20 28 11 15 1019.6 - 0.0
23/11:00am 21.2 15.7 3.9 32 8.5 SE 22 30 12 16 1019.8 - 0.0
23/10:30am 20.0 13.2 3.3 33 8.1 SE 28 35 15 19 1019.9 - 0.0
23/10:00am 18.5 11.3 3.2 36 7.3 SE 30 41 16 22 1019.8 - 0.0
23/09:30am 17.8 10.0 2.9 37 7.0 SSE 33 43 18 23 1019.5 - 0.0
23/09:00am 16.6 9.0 2.6 39 6.5 SSE 32 46 17 25 1019.1 1018.9 0.0
23/08:30am 15.5 8.2 2.7 42 5.9 SSE 30 39 16 21 1018.8 - 0.0
23/08:00am 14.6 7.4 2.8 45 5.4 SSE 30 39 16 21 1018.3 - 0.0
23/07:30am 14.3 7.3 4.0 50 4.8 SSE 30 39 16 21 1018.0 - 0.0
23/07:00am 14.3 7.7 4.3 51 4.7 SSE 28 35 15 19 1017.6 - 0.0
23/06:30am 14.5 8.0 4.5 51 4.8 SSE 28 39 15 21 1017.5 - 0.0
23/06:00am 14.5 8.0 4.5 51 4.7 SSE 28 35 15 19 1017.4 1017.2 0.0
23/05:30am 14.8 7.8 4.2 49 5.0 SSE 30 37 16 20 1017.2 - 0.0
23/05:00am 15.5 8.9 4.2 47 5.4 SSE 28 39 15 21 1017.0 - 0.0
23/04:30am 15.6 9.3 4.0 46 5.5 SSE 26 33 14 18 1017.2 - 0.0
23/04:00am 15.5 8.9 4.2 47 5.4 SSE 28 35 15 19 1017.1 - 0.0
23/03:30am 16.4 9.3 3.8 43 6.0 SSE 30 37 16 20 1017.2 - 0.0
23/03:00am 16.8 10.8 3.5 41 6.3 SSE 24 32 13 17 1017.4 1017.2 0.0
23/02:30am 16.9 10.8 2.5 38 6.7 SSE 24 28 13 15 1017.5 - 0.0
23/02:00am 17.4 11.1 1.8 35 7.2 SSE 24 33 13 18 1017.7 - 0.0
23/01:30am 17.7 11.4 1.7 34 7.4 SSE 24 32 13 17 1018.0 - 0.0
23/01:00am 18.7 12.0 1.2 31 8.0 SSE 26 35 14 19 1018.0 - 0.0
23/12:30am 18.4 12.5 1.9 33 7.7 SSE 22 28 12 15 1017.8 - 0.0
23/12:00am 18.1 12.4 2.8 36 7.2 SSE 22 28 12 15 1018.0 1017.8 0.0
 
Date/Time
CST
Temp
°C
App
Temp
°C
Dew
Point
°C
Rel
Hum
%
Delta-T
°C
Wind Press
QNH
hPa
Press
MSL
hPa
Rain since
9am
mm
Dir  Spd
km/h
Gust
km/h
Spd
kts
Gust
kts
22/11:30pm 18.6 12.3 4.0 38 7.1 SSE 26 33 14 18 1018.1 - 0.0
22/11:00pm 19.1 12.9 4.5 38 7.2 SSE 26 32 14 17 1017.9 - 0.0
22/10:30pm 19.6 14.3 4.9 38 7.3 SSE 22 28 12 15 1017.8 - 0.0
22/10:00pm 20.1 15.3 5.4 38 7.4 SSE 20 26 11 14 1017.5 - 0.0
22/09:30pm 20.2 16.0 5.8 39 7.3 SSE 17 22 9 12 1017.5 - 0.0
22/09:00pm 19.9 16.6 6.6 42 6.8 SSE 13 17 7 9 1017.4 1017.2 0.0
22/08:30pm 20.9 17.3 6.8 40 7.3 S 15 17 8 9 1017.1 - 0.0
22/08:00pm 21.9 18.4 7.0 38 7.8 S 15 19 8 10 1016.9 - 0.0
22/07:30pm 23.5 19.6 7.2 35 8.7 S 17 26 9 14 1016.5 - 0.0
22/07:00pm 24.0 20.2 7.6 35 8.8 S 17 20 9 11 1015.9 - 0.0
22/06:30pm 24.6 21.8 8.5 36 8.8 SW 13 17 7 9 1015.5 - 0.0
22/06:00pm 26.8 23.7 8.7 32 10.1 WSW 15 20 8 11 1015.3 1015.1 0.0
22/05:30pm 27.7 24.2 8.6 30 10.6 SW 17 22 9 12 1015.2 - 0.0
22/05:00pm 28.2 23.7 8.5 29 11.0 SSW 22 32 12 17 1015.3 - 0.0
22/04:30pm 28.3 24.4 8.6 29 11.0 SSW 19 22 10 12 1015.3 - 0.0
22/04:00pm 28.8 25.4 9.0 29 11.2 WSW 17 22 9 12 1015.2 - 0.0
22/03:30pm 29.4 26.1 9.5 29 11.3 WSW 17 26 9 14 1015.3 - 0.0
22/03:00pm 29.0 25.2 9.2 29 11.2 WSW 19 26 10 14 1015.5 1015.3 0.0
22/02:30pm 28.8 25.9 9.5 30 11.0 SW 15 26 8 14 1015.8 - 0.0
22/02:00pm 28.5 25.4 8.7 29 11.1 WSW 15 24 8 13 1016.1 - 0.0
22/01:30pm 28.6 25.6 9.3 30 10.9 WSW 15 22 8 12 1016.5 - 0.0
22/01:00pm 28.4 25.6 10.1 32 10.5 WSW 15 22 8 12 1017.0 - 0.0
22/12:30pm 27.8 25.4 10.1 33 10.1 SW 13 19 7 10 1017.5 - 0.0
22/12:00pm 27.3 24.3 10.5 35 9.6 W 17 20 9 11 1017.8 1017.6 0.0
22/11:30am 27.0 25.7 11.1 37 9.2 S 9 24 5 13 1018.2 - 0.0
22/11:00am 25.5 23.9 10.1 38 8.7 SE 9 15 5 8 1018.5 - 0.0
22/10:30am 24.5 22.8 10.0 40 8.1 SSE 9 13 5 7 1018.5 - 0.0
22/09:30am 20.9 20.7 9.2 47 6.4 CALM 0 0 0 0 1018.5 - 0.0
22/09:00am 19.2 18.9 8.5 50 5.7 CALM 0 0 0 0 1018.4 1018.2 0.0
22/08:30am 15.6 15.1 9.5 67 3.2 SE 2 7 1 4 1018.3 - 0.0
22/08:00am 12.5 11.7 8.2 75 2.2 E 2 7 1 4 1017.8 - 0.0
22/07:30am 11.4 9.7 7.5 77 1.9 NE 6 7 3 4 1017.4 - 0.0
22/07:00am 11.7 9.9 7.8 77 1.9 ENE 7 7 4 4 1017.2 - 0.0
22/06:30am 12.1 10.3 7.8 75 2.2 ENE 7 7 4 4 1017.0 - 0.0
22/06:00am 12.7 12.3 8.2 74 2.3 CALM 0 6 0 3 1016.9 1016.7 0.0
22/05:30am 12.7 11.4 7.8 72 2.5 E 4 6 2 3 1016.8 - 0.0
22/05:00am 12.6 10.7 7.7 72 2.5 E 7 9 4 5 1016.8 - 0.0
22/04:30am 12.9 11.1 8.0 72 2.5 E 7 9 4 5 1016.8 - 0.0
22/04:00am 13.2 11.0 7.9 70 2.7 ENE 9 9 5 5 1016.8 - 0.0
22/03:30am 13.5 11.7 7.9 69 2.8 ENE 7 7 4 4 1016.8 - 0.0
22/03:00am 14.4 12.9 8.4 67 3.1 E 6 9 3 5 1016.8 1016.6 0.0
22/02:30am 14.9 13.3 8.2 64 3.4 S 6 6 3 3 1016.8 - 0.0
22/02:00am 14.9 13.1 7.9 63 3.6 SSW 7 9 4 5 1017.0 - 0.0
22/01:30am 15.4 13.8 8.2 62 3.7 S 6 7 3 4 1017.0 - 0.0
22/01:00am 15.5 13.7 8.0 61 3.9 SSE 7 9 4 5 1016.9 - 0.0
22/12:30am 15.4 13.2 7.9 61 3.8 SSE 9 11 5 6 1016.8 - 0.0
22/12:00am 16.2 14.5 8.2 59 4.1 SSE 7 9 4 5 1016.7 1016.4 0.0
 
Date/Time
CST
Temp
°C
App
Temp
°C
Dew
Point
°C
Rel
Hum
%
Delta-T
°C
Wind Press
QNH
hPa
Press
MSL
hPa
Rain since
9am
mm
Dir  Spd
km/h
Gust
km/h
Spd
kts
Gust
kts
21/11:30pm 16.1 14.0 8.1 59 4.1 SSE 9 9 5 5 1016.9 - 0.0
21/11:00pm 16.3 14.7 8.0 58 4.3 SE 6 9 3 5 1016.9 - 0.0
21/10:30pm 16.3 14.5 8.0 58 4.3 SE 7 7 4 4 1016.9 - 0.0
21/10:00pm 16.8 15.2 8.0 56 4.6 E 6 6 3 3 1016.8 - 0.0
21/09:30pm 17.5 15.7 8.1 54 4.9 ENE 7 9 4 5 1016.6 - 0.0
21/09:00pm 17.7 17.2 8.0 53 5.1 CALM 0 6 0 3 1016.6 1016.3 0.0
21/08:30pm 18.2 17.8 8.2 52 5.3 CALM 0 0 0 0 1016.0 - 0.0

Other Formats:

Comma delimited format used in spreadsheet applications
http://www.bom.gov.au/fwo/IDD60801/IDD60801.94321.axf

JavaScript Object Notation format (JSON) in row-major order
http://www.bom.gov.au/fwo/IDD60801/IDD60801.94321.json